createdAt,value
2023-02-08T00:00:03.198Z,1035.1
2023-02-08T00:15:02.597Z,1035.0
2023-02-08T00:30:03.202Z,1034.9
2023-02-08T00:45:02.471Z,1034.7
2023-02-08T01:00:02.925Z,1034.7
2023-02-08T01:15:02.359Z,1034.6
2023-02-08T01:30:02.760Z,1034.5
2023-02-08T01:45:03.220Z,1034.4
2023-02-08T02:00:02.722Z,1034.4
2023-02-08T02:15:03.242Z,1034.2
2023-02-08T02:30:02.561Z,1034.5
2023-02-08T02:45:02.978Z,1034.5
2023-02-08T03:00:02.394Z,1034.4
2023-02-08T03:15:02.837Z,1034.4
2023-02-08T03:30:02.298Z,1034.4
2023-02-08T03:45:02.718Z,1034.4
2023-02-08T04:00:03.275Z,1034.5
2023-02-08T04:15:02.596Z,1034.6
2023-02-08T04:30:03.018Z,1034.6
2023-02-08T04:45:02.478Z,1034.6
2023-02-08T05:00:02.918Z,1034.5
2023-02-08T05:15:02.349Z,1034.6
2023-02-08T05:30:02.785Z,1034.6
2023-02-08T05:45:03.282Z,1034.5
2023-02-08T06:00:02.686Z,1034.5
2023-02-08T06:15:03.308Z,1034.1
2023-02-08T06:30:02.523Z,1034.4
2023-02-08T06:45:03.143Z,1034.4
2023-02-08T07:00:02.366Z,1034.5
2023-02-08T07:15:02.795Z,1034.6
2023-02-08T07:30:02.304Z,1034.6
2023-02-08T07:45:02.684Z,1034.5
2023-02-08T08:00:03.328Z,1034.4
2023-02-08T08:15:02.553Z,1034.4
2023-02-08T08:30:03.010Z,1034.5
2023-02-08T08:45:02.438Z,1034.1
2023-02-08T09:00:02.847Z,1034.1
2023-02-08T09:15:02.355Z,1034.0
2023-02-08T09:30:02.711Z,1034.0
2023-02-08T09:45:03.381Z,1034.1
2023-02-08T10:00:02.598Z,1034.1
2023-02-08T10:15:03.029Z,1034.2
2023-02-08T10:30:02.437Z,1034.1
2023-02-08T10:45:04.065Z,1034.0
2023-02-08T11:00:02.391Z,1033.9
2023-02-08T11:15:02.777Z,1033.6
2023-02-08T11:30:02.393Z,1033.9
2023-02-08T11:45:02.637Z,1033.7
2023-02-08T12:00:03.058Z,1033.4
2023-02-08T12:15:02.496Z,1033.1
2023-02-08T12:30:02.943Z,1033.1
2023-02-08T12:45:02.439Z,1032.7
2023-02-08T13:00:02.820Z,1032.5
2023-02-08T13:15:03.409Z,1032.1
2023-02-08T13:30:02.696Z,1032.1
2023-02-08T13:45:03.145Z,1031.9
2023-02-08T14:00:02.581Z,1031.8
2023-02-08T14:15:03.028Z,1031.6
2023-02-08T14:30:02.483Z,1031.2
2023-02-08T14:45:02.917Z,1030.9
2023-02-08T15:00:02.475Z,1030.9
2023-02-08T15:15:02.801Z,1030.9
2023-02-08T15:30:02.460Z,1030.7
2023-02-08T15:45:02.662Z,1030.7
2023-02-08T16:00:03.120Z,1030.6
2023-02-08T16:15:02.568Z,1030.3
2023-02-08T16:30:03.101Z,1030.1
2023-02-08T16:45:02.491Z,1030.2
2023-02-08T17:00:02.837Z,1029.9
2023-02-08T17:15:02.497Z,1029.9
2023-02-08T17:30:02.707Z,1029.9
2023-02-08T17:45:03.129Z,1029.5
2023-02-08T18:00:02.578Z,1029.2
2023-02-08T18:15:03.025Z,1029.2
2023-02-08T18:30:02.517Z,1029.2
2023-02-08T18:45:02.880Z,1029.0
2023-02-08T19:00:02.513Z,1029.0
2023-02-08T19:15:02.753Z,1029.0
2023-02-08T19:30:03.190Z,1028.9
2023-02-08T19:45:02.615Z,1028.8
2023-02-08T20:00:06.233Z,1028.8
2023-02-08T20:15:02.544Z,1028.9
2023-02-08T20:30:02.925Z,1028.7
2023-02-08T20:45:02.573Z,1028.9
2023-02-08T21:00:02.780Z,1028.9
2023-02-08T21:15:03.297Z,1028.9
2023-02-08T21:30:02.630Z,1028.8
2023-02-08T21:45:03.096Z,1028.7
2023-02-08T22:00:02.538Z,1028.6
2023-02-08T22:15:02.982Z,1028.5
2023-02-08T22:30:02.556Z,1028.3
2023-02-08T22:45:02.823Z,1028.2
2023-02-08T23:00:02.431Z,1028.2
2023-02-08T23:30:03.147Z,1028.0
2023-02-08T23:45:02.594Z,1027.9
